sensor_id;sensor_type;location;lat;lon;timestamp;pressure;altitude;pressure_sealevel;temperature;humidity
72585;BME280;60618;40.084;32.908;2023-05-20T00:01:15;89156.47;;;11.21;75.86
72585;BME280;60618;40.084;32.908;2023-05-20T00:03:42;89140.00;;;11.40;75.61
72585;BME280;60618;40.084;32.908;2023-05-20T00:06:10;89132.97;;;11.20;76.24
72585;BME280;60618;40.084;32.908;2023-05-20T00:08:37;89136.84;;;11.19;76.45
72585;BME280;60618;40.084;32.908;2023-05-20T00:11:04;89150.44;;;11.26;76.54
72585;BME280;60618;40.084;32.908;2023-05-20T00:13:31;89142.66;;;11.28;76.81
72585;BME280;60618;40.084;32.908;2023-05-20T00:15:58;89143.16;;;11.38;76.07
72585;BME280;60618;40.084;32.908;2023-05-20T00:18:24;89148.47;;;11.38;76.11
72585;BME280;60618;40.084;32.908;2023-05-20T00:20:51;89140.75;;;11.34;76.45
72585;BME280;60618;40.084;32.908;2023-05-20T00:23:19;89144.09;;;11.13;76.78
72585;BME280;60618;40.084;32.908;2023-05-20T00:25:46;89138.03;;;11.12;76.79
72585;BME280;60618;40.084;32.908;2023-05-20T00:28:13;89136.09;;;11.01;75.07
72585;BME280;60618;40.084;32.908;2023-05-20T00:30:40;89133.44;;;11.01;75.22
72585;BME280;60618;40.084;32.908;2023-05-20T00:33:07;89132.72;;;11.06;76.38
72585;BME280;60618;40.084;32.908;2023-05-20T00:35:34;89141.19;;;10.99;77.90
72585;BME280;60618;40.084;32.908;2023-05-20T00:38:01;89137.75;;;10.82;78.93
72585;BME280;60618;40.084;32.908;2023-05-20T00:40:28;89135.25;;;10.56;76.90
72585;BME280;60618;40.084;32.908;2023-05-20T00:42:55;89140.16;;;10.15;78.52
72585;BME280;60618;40.084;32.908;2023-05-20T00:45:22;89146.78;;;10.25;78.67
72585;BME280;60618;40.084;32.908;2023-05-20T00:47:49;89139.63;;;10.54;77.14
72585;BME280;60618;40.084;32.908;2023-05-20T00:50:16;89134.34;;;10.76;76.90
72585;BME280;60618;40.084;32.908;2023-05-20T00:52:43;89138.03;;;11.01;75.57
72585;BME280;60618;40.084;32.908;2023-05-20T00:55:10;89135.88;;;11.27;74.42
72585;BME280;60618;40.084;32.908;2023-05-20T00:57:37;89139.03;;;11.31;74.46
72585;BME280;60618;40.084;32.908;2023-05-20T01:00:06;89134.41;;;11.21;75.92
72585;BME280;60618;40.084;32.908;2023-05-20T01:02:33;89138.78;;;11.18;77.12
72585;BME280;60618;40.084;32.908;2023-05-20T01:05:00;89136.38;;;11.15;76.73
72585;BME280;60618;40.084;32.908;2023-05-20T01:07:27;89135.88;;;11.11;77.02
72585;BME280;60618;40.084;32.908;2023-05-20T01:09:54;89132.44;;;10.88;76.99
72585;BME280;60618;40.084;32.908;2023-05-20T01:12:43;89133.69;;;10.98;77.15
72585;BME280;60618;40.084;32.908;2023-05-20T01:15:14;89129.09;;;11.32;75.24
72585;BME280;60618;40.084;32.908;2023-05-20T01:17:55;89125.22;;;11.33;76.40
72585;BME280;60618;40.084;32.908;2023-05-20T01:20:23;89122.06;;;11.29;76.84
72585;BME280;60618;40.084;32.908;2023-05-20T01:22:55;89116.25;;;11.25;77.56
72585;BME280;60618;40.084;32.908;2023-05-20T01:25:23;89115.03;;;11.09;77.84
72585;BME280;60618;40.084;32.908;2023-05-20T01:27:51;89117.69;;;11.03;78.43
72585;BME280;60618;40.084;32.908;2023-05-20T01:30:19;89119.13;;;10.99;78.62
72585;BME280;60618;40.084;32.908;2023-05-20T01:32:56;89106.53;;;10.99;78.97
72585;BME280;60618;40.084;32.908;2023-05-20T01:35:24;89113.09;;;11.09;78.25
72585;BME280;60618;40.084;32.908;2023-05-20T01:37:52;89115.28;;;11.11;78.14
72585;BME280;60618;40.084;32.908;2023-05-20T01:40:20;89108.00;;;11.06;78.73
72585;BME280;60618;40.084;32.908;2023-05-20T01:42:48;89124.22;;;11.02;78.69
72585;BME280;60618;40.084;32.908;2023-05-20T01:45:15;89121.56;;;10.91;79.29
72585;BME280;60618;40.084;32.908;2023-05-20T01:47:44;89118.41;;;10.93;79.07
72585;BME280;60618;40.084;32.908;2023-05-20T01:50:11;89117.19;;;10.88;79.47
72585;BME280;60618;40.084;32.908;2023-05-20T01:52:38;89123.50;;;10.96;79.37
72585;BME280;60618;40.084;32.908;2023-05-20T01:55:05;89123.25;;;10.94;78.88
72585;BME280;60618;40.084;32.908;2023-05-20T01:57:36;89123.97;;;10.95;78.88
72585;BME280;60618;40.084;32.908;2023-05-20T02:00:04;89126.84;;;10.74;79.14
72585;BME280;60618;40.084;32.908;2023-05-20T02:02:31;89131.84;;;10.50;79.58
72585;BME280;60618;40.084;32.908;2023-05-20T02:04:58;89130.91;;;10.53;79.55
72585;BME280;60618;40.084;32.908;2023-05-20T02:07:25;89140.84;;;10.64;80.01
72585;BME280;60618;40.084;32.908;2023-05-20T02:09:52;89128.28;;;10.64;78.98
72585;BME280;60618;40.084;32.908;2023-05-20T02:12:19;89131.41;;;10.68;79.85
72585;BME280;60618;40.084;32.908;2023-05-20T02:14:46;89128.06;;;10.79;79.54
72585;BME280;60618;40.084;32.908;2023-05-20T02:17:13;89133.38;;;10.73;79.47
72585;BME280;60618;40.084;32.908;2023-05-20T02:19:41;89137.50;;;10.74;80.50
72585;BME280;60618;40.084;32.908;2023-05-20T02:22:08;89131.47;;;10.91;79.28
72585;BME280;60618;40.084;32.908;2023-05-20T02:24:35;89136.31;;;10.81;80.03
72585;BME280;60618;40.084;32.908;2023-05-20T02:27:02;89129.78;;;10.93;78.97
72585;BME280;60618;40.084;32.908;2023-05-20T02:29:29;89139.13;;;10.55;79.80
72585;BME280;60618;40.084;32.908;2023-05-20T02:31:56;89135.72;;;10.43;80.24
72585;BME280;60618;40.084;32.908;2023-05-20T02:34:23;89141.31;;;10.57;80.26
72585;BME280;60618;40.084;32.908;2023-05-20T02:36:50;89144.00;;;10.68;79.70
72585;BME280;60618;40.084;32.908;2023-05-20T02:39:17;89143.81;;;10.83;78.52
72585;BME280;60618;40.084;32.908;2023-05-20T02:41:44;89147.94;;;10.89;78.34
72585;BME280;60618;40.084;32.908;2023-05-20T02:44:11;89139.72;;;10.98;78.06
72585;BME280;60618;40.084;32.908;2023-05-20T02:46:38;89152.09;;;11.18;77.57
72585;BME280;60618;40.084;32.908;2023-05-20T02:49:05;89138.28;;;11.20;76.73
72585;BME280;60618;40.084;32.908;2023-05-20T02:51:32;89140.22;;;11.02;77.71
72585;BME280;60618;40.084;32.908;2023-05-20T02:53:59;89147.00;;;10.98;78.25
72585;BME280;60618;40.084;32.908;2023-05-20T02:56:25;89139.28;;;11.17;77.67
72585;BME280;60618;40.084;32.908;2023-05-20T02:58:52;89147.50;;;11.19;78.31
72585;BME280;60618;40.084;32.908;2023-05-20T03:01:19;89149.63;;;10.87;78.96
72585;BME280;60618;40.084;32.908;2023-05-20T03:03:47;89161.00;;;10.87;78.98
72585;BME280;60618;40.084;32.908;2023-05-20T03:06:14;89159.09;;;11.04;78.92
72585;BME280;60618;40.084;32.908;2023-05-20T03:08:40;89170.03;;;11.18;78.44
72585;BME280;60618;40.084;32.908;2023-05-20T03:11:07;89170.78;;;11.24;77.62
72585;BME280;60618;40.084;32.908;2023-05-20T03:13:34;89174.19;;;11.35;76.90
72585;BME280;60618;40.084;32.908;2023-05-20T03:16:01;89177.81;;;11.38;76.63
72585;BME280;60618;40.084;32.908;2023-05-20T03:18:29;89183.88;;;11.33;76.87
72585;BME280;60618;40.084;32.908;2023-05-20T03:20:55;89188.63;;;10.90;78.95
72585;BME280;60618;40.084;32.908;2023-05-20T03:23:22;89187.63;;;10.70;80.35
72585;BME280;60618;40.084;32.908;2023-05-20T03:25:49;89184.78;;;10.96;79.89
72585;BME280;60618;40.084;32.908;2023-05-20T03:28:16;89191.13;;;11.27;78.47
72585;BME280;60618;40.084;32.908;2023-05-20T03:30:43;89186.06;;;11.46;77.73
72585;BME280;60618;40.084;32.908;2023-05-20T03:33:10;89184.13;;;11.74;76.50
72585;BME280;60618;40.084;32.908;2023-05-20T03:35:37;89183.16;;;11.94;75.54
72585;BME280;60618;40.084;32.908;2023-05-20T03:38:04;89187.06;;;11.87;76.06
72585;BME280;60618;40.084;32.908;2023-05-20T03:40:31;89185.38;;;11.96;75.61
72585;BME280;60618;40.084;32.908;2023-05-20T03:42:58;89183.16;;;12.00;75.70
72585;BME280;60618;40.084;32.908;2023-05-20T03:45:25;89181.69;;;12.15;74.71
72585;BME280;60618;40.084;32.908;2023-05-20T03:47:52;89192.34;;;12.27;74.35
72585;BME280;60618;40.084;32.908;2023-05-20T03:50:19;89188.47;;;12.11;75.17
72585;BME280;60618;40.084;32.908;2023-05-20T03:52:46;89186.28;;;12.20;75.08
72585;BME280;60618;40.084;32.908;2023-05-20T03:55:13;89184.38;;;12.04;75.52
72585;BME280;60618;40.084;32.908;2023-05-20T03:57:40;89187.53;;;11.91;76.11
72585;BME280;60618;40.084;32.908;2023-05-20T04:00:07;89178.56;;;11.78;76.75
72585;BME280;60618;40.084;32.908;2023-05-20T04:02:34;89175.38;;;11.68;76.97
72585;BME280;60618;40.084;32.908;2023-05-20T04:05:02;89186.31;;;11.70;77.31
72585;BME280;60618;40.084;32.908;2023-05-20T04:07:28;89191.88;;;11.44;77.84
72585;BME280;60618;40.084;32.908;2023-05-20T04:09:56;89185.56;;;11.36;78.53
72585;BME280;60618;40.084;32.908;2023-05-20T04:12:22;89192.06;;;11.13;79.08
72585;BME280;60618;40.084;32.908;2023-05-20T04:14:49;89194.94;;;10.92;80.81
72585;BME280;60618;40.084;32.908;2023-05-20T04:17:16;89202.94;;;10.98;80.44
72585;BME280;60618;40.084;32.908;2023-05-20T04:19:43;89203.22;;;11.05;80.25
72585;BME280;60618;40.084;32.908;2023-05-20T04:22:10;89214.28;;;10.87;81.46
72585;BME280;60618;40.084;32.908;2023-05-20T04:24:37;89212.63;;;10.90;81.20
72585;BME280;60618;40.084;32.908;2023-05-20T04:27:04;89213.34;;;10.96;81.31
72585;BME280;60618;40.084;32.908;2023-05-20T04:29:31;89222.13;;;11.19;81.05
72585;BME280;60618;40.084;32.908;2023-05-20T04:31:58;89214.91;;;11.36;79.44
72585;BME280;60618;40.084;32.908;2023-05-20T04:34:28;89216.84;;;11.47;79.14
72585;BME280;60618;40.084;32.908;2023-05-20T04:36:55;89227.03;;;11.43;79.34
72585;BME280;60618;40.084;32.908;2023-05-20T04:39:22;89215.16;;;11.55;78.65
72585;BME280;60618;40.084;32.908;2023-05-20T04:41:49;89228.75;;;11.62;78.63
72585;BME280;60618;40.084;32.908;2023-05-20T04:44:15;89219.78;;;11.77;78.72
72585;BME280;60618;40.084;32.908;2023-05-20T04:46:43;89229.75;;;11.82;78.59
72585;BME280;60618;40.084;32.908;2023-05-20T04:49:09;89232.91;;;11.97;78.23
72585;BME280;60618;40.084;32.908;2023-05-20T04:51:36;89230.69;;;12.12;77.55
72585;BME280;60618;40.084;32.908;2023-05-20T04:54:03;89227.75;;;12.44;76.27
72585;BME280;60618;40.084;32.908;2023-05-20T04:56:30;89242.75;;;12.64;75.62
72585;BME280;60618;40.084;32.908;2023-05-20T04:58:57;89253.69;;;12.71;75.56
72585;BME280;60618;40.084;32.908;2023-05-20T05:01:24;89252.91;;;12.82;74.92
72585;BME280;60618;40.084;32.908;2023-05-20T05:03:51;89253.72;;;12.60;75.21
72585;BME280;60618;40.084;32.908;2023-05-20T05:06:18;89255.66;;;12.54;75.33
72585;BME280;60618;40.084;32.908;2023-05-20T05:08:45;89254.66;;;12.57;76.04
72585;BME280;60618;40.084;32.908;2023-05-20T05:11:12;89250.06;;;12.63;75.74
72585;BME280;60618;40.084;32.908;2023-05-20T05:13:38;89250.22;;;12.88;75.31
72585;BME280;60618;40.084;32.908;2023-05-20T05:16:05;89251.59;;;13.11;73.35
72585;BME280;60618;40.084;32.908;2023-05-20T05:18:32;89243.50;;;13.33;73.24
72585;BME280;60618;40.084;32.908;2023-05-20T05:21:03;89250.88;;;13.63;71.41
72585;BME280;60618;40.084;32.908;2023-05-20T05:23:31;89250.03;;;14.15;70.39
72585;BME280;60618;40.084;32.908;2023-05-20T05:25:58;89247.50;;;14.58;68.00
72585;BME280;60618;40.084;32.908;2023-05-20T05:28:25;89244.53;;;14.86;66.37
72585;BME280;60618;40.084;32.908;2023-05-20T05:30:55;89249.66;;;15.27;64.60
72585;BME280;60618;40.084;32.908;2023-05-20T05:33:22;89241.16;;;15.67;63.49
72585;BME280;60618;40.084;32.908;2023-05-20T05:35:49;89243.31;;;15.87;61.04
72585;BME280;60618;40.084;32.908;2023-05-20T05:38:17;89248.03;;;15.62;62.13
72585;BME280;60618;40.084;32.908;2023-05-20T05:40:43;89244.81;;;15.45;62.72
72585;BME280;60618;40.084;32.908;2023-05-20T05:43:10;89242.66;;;15.62;63.04
72585;BME280;60618;40.084;32.908;2023-05-20T05:45:38;89241.00;;;15.78;61.34
72585;BME280;60618;40.084;32.908;2023-05-20T05:48:04;89233.78;;;15.86;61.89
72585;BME280;60618;40.084;32.908;2023-05-20T05:50:31;89242.72;;;15.38;63.28
72585;BME280;60618;40.084;32.908;2023-05-20T05:52:58;89236.19;;;15.33;63.30
72585;BME280;60618;40.084;32.908;2023-05-20T05:55:25;89238.59;;;14.93;64.10
72585;BME280;60618;40.084;32.908;2023-05-20T05:57:52;89237.50;;;14.83;64.34
72585;BME280;60618;40.084;32.908;2023-05-20T06:00:19;89232.22;;;14.72;65.01
72585;BME280;60618;40.084;32.908;2023-05-20T06:02:46;89230.09;;;14.40;66.32
72585;BME280;60618;40.084;32.908;2023-05-20T06:05:13;89230.44;;;14.26;67.37
72585;BME280;60618;40.084;32.908;2023-05-20T06:07:40;89219.81;;;14.20;67.98
72585;BME280;60618;40.084;32.908;2023-05-20T06:10:08;89231.06;;;14.13;67.70
72585;BME280;60618;40.084;32.908;2023-05-20T06:12:35;89218.00;;;14.28;67.90
72585;BME280;60618;40.084;32.908;2023-05-20T06:15:02;89227.31;;;14.52;67.79
72585;BME280;60618;40.084;32.908;2023-05-20T06:17:29;89222.00;;;14.46;67.50
72585;BME280;60618;40.084;32.908;2023-05-20T06:19:56;89232.47;;;14.44;67.36
72585;BME280;60618;40.084;32.908;2023-05-20T06:22:23;89224.72;;;14.40;67.80
72585;BME280;60618;40.084;32.908;2023-05-20T06:24:49;89219.50;;;14.54;67.42
72585;BME280;60618;40.084;32.908;2023-05-20T06:27:16;89218.31;;;14.98;67.10
72585;BME280;60618;40.084;32.908;2023-05-20T06:29:43;89219.34;;;15.14;65.24
72585;BME280;60618;40.084;32.908;2023-05-20T06:32:10;89215.16;;;15.37;64.15
72585;BME280;60618;40.084;32.908;2023-05-20T06:34:38;89216.44;;;15.87;62.82
72585;BME280;60618;40.084;32.908;2023-05-20T06:37:04;89219.56;;;15.53;61.15
72585;BME280;60618;40.084;32.908;2023-05-20T06:39:31;89222.25;;;15.53;61.07
72585;BME280;60618;40.084;32.908;2023-05-20T06:41:58;89213.63;;;15.42;62.65
72585;BME280;60618;40.084;32.908;2023-05-20T06:44:27;89226.13;;;15.77;60.42
72585;BME280;60618;40.084;32.908;2023-05-20T06:46:55;89213.72;;;16.06;60.93
72585;BME280;60618;40.084;32.908;2023-05-20T06:49:22;89222.94;;;16.10;57.50
72585;BME280;60618;40.084;32.908;2023-05-20T06:51:49;89216.00;;;16.02;58.21
72585;BME280;60618;40.084;32.908;2023-05-20T06:54:15;89220.16;;;15.84;60.44
72585;BME280;60618;40.084;32.908;2023-05-20T06:56:42;89221.06;;;16.05;60.03
72585;BME280;60618;40.084;32.908;2023-05-20T06:59:09;89213.47;;;16.23;58.93
72585;BME280;60618;40.084;32.908;2023-05-20T07:01:36;89211.56;;;16.63;59.13
72585;BME280;60618;40.084;32.908;2023-05-20T07:04:03;89219.34;;;16.80;57.00
72585;BME280;60618;40.084;32.908;2023-05-20T07:06:30;89218.34;;;17.09;55.61
72585;BME280;60618;40.084;32.908;2023-05-20T07:08:57;89206.75;;;17.01;56.75
72585;BME280;60618;40.084;32.908;2023-05-20T07:11:24;89206.34;;;17.71;55.88
72585;BME280;60618;40.084;32.908;2023-05-20T07:13:51;89216.47;;;17.78;54.15
72585;BME280;60618;40.084;32.908;2023-05-20T07:16:18;89209.22;;;17.25;55.04
72585;BME280;60618;40.084;32.908;2023-05-20T07:18:45;89208.09;;;17.08;56.04
72585;BME280;60618;40.084;32.908;2023-05-20T07:21:12;89204.44;;;17.05;55.57
72585;BME280;60618;40.084;32.908;2023-05-20T07:23:39;89208.06;;;16.68;56.31
72585;BME280;60618;40.084;32.908;2023-05-20T07:26:06;89208.38;;;16.64;55.96
72585;BME280;60618;40.084;32.908;2023-05-20T07:28:33;89213.78;;;17.17;55.39
72585;BME280;60618;40.084;32.908;2023-05-20T07:31:00;89208.75;;;17.48;54.44
72585;BME280;60618;40.084;32.908;2023-05-20T07:33:27;89216.03;;;17.26;54.50
72585;BME280;60618;40.084;32.908;2023-05-20T07:35:54;89210.34;;;17.30;55.99
72585;BME280;60618;40.084;32.908;2023-05-20T07:38:20;89215.59;;;17.49;54.41
72585;BME280;60618;40.084;32.908;2023-05-20T07:40:47;89210.56;;;17.19;54.92
72585;BME280;60618;40.084;32.908;2023-05-20T07:43:15;89220.19;;;17.27;54.25
72585;BME280;60618;40.084;32.908;2023-05-20T07:45:42;89207.44;;;17.28;54.84
72585;BME280;60618;40.084;32.908;2023-05-20T07:48:09;89206.88;;;17.43;54.05
72585;BME280;60618;40.084;32.908;2023-05-20T07:50:36;89212.84;;;17.01;55.07
72585;BME280;60618;40.084;32.908;2023-05-20T07:53:03;89209.94;;;16.86;55.42
72585;BME280;60618;40.084;32.908;2023-05-20T07:55:33;89207.84;;;16.66;55.90
72585;BME280;60618;40.084;32.908;2023-05-20T07:58:01;89207.13;;;16.65;56.73
72585;BME280;60618;40.084;32.908;2023-05-20T08:00:28;89203.28;;;16.61;55.99
72585;BME280;60618;40.084;32.908;2023-05-20T08:02:55;89214.09;;;16.74;56.41
72585;BME280;60618;40.084;32.908;2023-05-20T08:05:22;89203.19;;;16.66;55.67
72585;BME280;60618;40.084;32.908;2023-05-20T08:07:49;89205.91;;;16.93;55.32
72585;BME280;60618;40.084;32.908;2023-05-20T08:10:16;89208.16;;;17.15;55.05
72585;BME280;60618;40.084;32.908;2023-05-20T08:12:43;89215.31;;;17.26;54.49
72585;BME280;60618;40.084;32.908;2023-05-20T08:15:10;89209.50;;;17.22;54.79
72585;BME280;60618;40.084;32.908;2023-05-20T08:17:37;89207.97;;;17.13;54.37
72585;BME280;60618;40.084;32.908;2023-05-20T08:20:05;89203.44;;;16.95;55.13
72585;BME280;60618;40.084;32.908;2023-05-20T08:22:32;89209.41;;;17.27;54.26
72585;BME280;60618;40.084;32.908;2023-05-20T08:24:59;89209.81;;;17.45;53.64
72585;BME280;60618;40.084;32.908;2023-05-20T08:27:26;89209.81;;;17.45;53.17
72585;BME280;60618;40.084;32.908;2023-05-20T08:29:53;89205.56;;;17.23;54.70
72585;BME280;60618;40.084;32.908;2023-05-20T08:32:20;89203.66;;;16.84;56.12
72585;BME280;60618;40.084;32.908;2023-05-20T08:34:47;89207.78;;;16.85;55.48
72585;BME280;60618;40.084;32.908;2023-05-20T08:37:13;89205.19;;;17.19;54.60
72585;BME280;60618;40.084;32.908;2023-05-20T08:39:40;89199.41;;;17.62;53.06
72585;BME280;60618;40.084;32.908;2023-05-20T08:42:08;89200.63;;;17.61;52.10
72585;BME280;60618;40.084;32.908;2023-05-20T08:44:35;89198.66;;;17.27;53.69
72585;BME280;60618;40.084;32.908;2023-05-20T08:47:04;89202.97;;;17.30;53.69
72585;BME280;60618;40.084;32.908;2023-05-20T08:49:31;89191.59;;;17.38;53.78
72585;BME280;60618;40.084;32.908;2023-05-20T08:51:59;89196.00;;;17.62;53.47
72585;BME280;60618;40.084;32.908;2023-05-20T08:54:46;89193.53;;;17.84;51.84
72585;BME280;60618;40.084;32.908;2023-05-20T08:57:13;89188.94;;;17.72;52.17
72585;BME280;60618;40.084;32.908;2023-05-20T08:59:41;89193.69;;;17.18;53.58
72585;BME280;60618;40.084;32.908;2023-05-20T09:02:09;89190.38;;;17.12;55.31
72585;BME280;60618;40.084;32.908;2023-05-20T09:04:37;89192.44;;;16.80;57.14
72585;BME280;60618;40.084;32.908;2023-05-20T09:07:05;89194.75;;;17.02;58.45
72585;BME280;60618;40.084;32.908;2023-05-20T09:09:33;89200.53;;;17.19;60.46
72585;BME280;60618;40.084;32.908;2023-05-20T09:12:01;89192.06;;;16.76;61.22
72585;BME280;60618;40.084;32.908;2023-05-20T09:14:29;89196.41;;;16.33;64.08
72585;BME280;60618;40.084;32.908;2023-05-20T09:16:56;89195.81;;;15.95;66.62
72585;BME280;60618;40.084;32.908;2023-05-20T09:19:24;89202.13;;;15.66;68.49
72585;BME280;60618;40.084;32.908;2023-05-20T09:21:54;89200.88;;;15.10;70.59
72585;BME280;60618;40.084;32.908;2023-05-20T09:24:24;89202.66;;;14.59;72.22
72585;BME280;60618;40.084;32.908;2023-05-20T09:26:52;89208.34;;;14.50;74.95
72585;BME280;60618;40.084;32.908;2023-05-20T09:29:19;89211.81;;;14.14;78.71
72585;BME280;60618;40.084;32.908;2023-05-20T09:31:47;89208.97;;;13.71;78.44
72585;BME280;60618;40.084;32.908;2023-05-20T09:34:16;89212.09;;;13.40;80.59
72585;BME280;60618;40.084;32.908;2023-05-20T09:36:44;89209.44;;;13.34;82.54
72585;BME280;60618;40.084;32.908;2023-05-20T09:39:16;89202.09;;;13.46;84.88
72585;BME280;60618;40.084;32.908;2023-05-20T09:44:20;89205.88;;;13.61;85.68
72585;BME280;60618;40.084;32.908;2023-05-20T09:46:48;89201.03;;;13.60;85.57
72585;BME280;60618;40.084;32.908;2023-05-20T09:49:16;89199.09;;;13.55;84.47
72585;BME280;60618;40.084;32.908;2023-05-20T09:51:45;89203.94;;;13.56;83.45
72585;BME280;60618;40.084;32.908;2023-05-20T09:54:14;89199.06;;;13.60;83.99
72585;BME280;60618;40.084;32.908;2023-05-20T09:56:45;89192.72;;;13.63;84.20
72585;BME280;60618;40.084;32.908;2023-05-20T09:59:14;89191.66;;;13.78;83.77
72585;BME280;60618;40.084;32.908;2023-05-20T10:01:44;89184.03;;;13.87;82.62
72585;BME280;60618;40.084;32.908;2023-05-20T10:04:12;89182.13;;;14.12;83.85
72585;BME280;60618;40.084;32.908;2023-05-20T10:20:06;89167.28;;;14.36;82.35
72585;BME280;60618;40.084;32.908;2023-05-20T10:22:33;89166.78;;;14.37;81.99
72585;BME280;60618;40.084;32.908;2023-05-20T10:25:04;89170.13;;;14.43;81.50
72585;BME280;60618;40.084;32.908;2023-05-20T10:27:45;89176.97;;;14.69;82.11
72585;BME280;60618;40.084;32.908;2023-05-20T10:30:20;89165.53;;;14.87;80.11
72585;BME280;60618;40.084;32.908;2023-05-20T10:32:56;89161.34;;;15.11;79.26
72585;BME280;60618;40.084;32.908;2023-05-20T10:35:24;89158.56;;;15.35;77.81
72585;BME280;60618;40.084;32.908;2023-05-20T10:37:53;89148.56;;;15.73;77.77
72585;BME280;60618;40.084;32.908;2023-05-20T10:40:21;89159.78;;;16.04;74.47
72585;BME280;60618;40.084;32.908;2023-05-20T10:42:48;89157.88;;;16.31;73.77
72585;BME280;60618;40.084;32.908;2023-05-20T10:45:26;89151.69;;;16.49;71.61
72585;BME280;60618;40.084;32.908;2023-05-20T10:47:55;89162.13;;;16.66;70.94
72585;BME280;60618;40.084;32.908;2023-05-20T10:50:33;89156.44;;;16.96;68.89
72585;BME280;60618;40.084;32.908;2023-05-20T10:53:05;89153.84;;;17.03;68.38
72585;BME280;60618;40.084;32.908;2023-05-20T10:55:40;89154.47;;;16.96;67.67
72585;BME280;60618;40.084;32.908;2023-05-20T10:58:08;89145.00;;;17.29;68.19
72585;BME280;60618;40.084;32.908;2023-05-20T11:00:36;89142.34;;;17.84;66.88
72585;BME280;60618;40.084;32.908;2023-05-20T11:03:04;89138.75;;;18.03;64.47
72585;BME280;60618;40.084;32.908;2023-05-20T11:05:34;89137.56;;;18.11;63.66
72585;BME280;60618;40.084;32.908;2023-05-20T11:08:02;89135.34;;;17.68;64.00
72585;BME280;60618;40.084;32.908;2023-05-20T11:10:45;89128.94;;;17.37;63.22
72585;BME280;60618;40.084;32.908;2023-05-20T11:13:20;89130.13;;;17.49;63.28
72585;BME280;60618;40.084;32.908;2023-05-20T11:15:48;89130.13;;;17.83;61.89
72585;BME280;60618;40.084;32.908;2023-05-20T11:18:15;89124.75;;;17.83;60.45
72585;BME280;60618;40.084;32.908;2023-05-20T11:20:45;89129.56;;;17.98;60.54
72585;BME280;60618;40.084;32.908;2023-05-20T11:23:14;89132.63;;;17.81;64.05
72585;BME280;60618;40.084;32.908;2023-05-20T11:25:41;89138.50;;;17.59;64.81
72585;BME280;60618;40.084;32.908;2023-05-20T11:28:14;89132.00;;;17.20;62.62
72585;BME280;60618;40.084;32.908;2023-05-20T11:30:42;89142.13;;;17.27;63.35
72585;BME280;60618;40.084;32.908;2023-05-20T11:33:14;89148.63;;;17.79;62.60
72585;BME280;60618;40.084;32.908;2023-05-20T11:35:50;89133.69;;;18.49;59.05
72585;BME280;60618;40.084;32.908;2023-05-20T11:38:18;89121.78;;;19.01;55.54
72585;BME280;60618;40.084;32.908;2023-05-20T11:40:54;89123.19;;;19.38;55.41
72585;BME280;60618;40.084;32.908;2023-05-20T11:43:23;89116.09;;;18.76;58.13
72585;BME280;60618;40.084;32.908;2023-05-20T11:45:56;89119.91;;;18.60;58.88
72585;BME280;60618;40.084;32.908;2023-05-20T11:48:24;89111.81;;;18.31;56.98
72585;BME280;60618;40.084;32.908;2023-05-20T11:50:53;89126.47;;;18.43;59.28
72585;BME280;60618;40.084;32.908;2023-05-20T11:53:21;89122.19;;;17.99;59.43
72585;BME280;60618;40.084;32.908;2023-05-20T11:55:55;89123.03;;;18.14;60.48
72585;BME280;60618;40.084;32.908;2023-05-20T11:58:28;89121.09;;;18.43;61.00
72585;BME280;60618;40.084;32.908;2023-05-20T12:00:55;89121.19;;;18.87;59.81
72585;BME280;60618;40.084;32.908;2023-05-20T12:03:39;89119.09;;;19.01;55.59
72585;BME280;60618;40.084;32.908;2023-05-20T12:06:06;89108.91;;;19.15;57.44
72585;BME280;60618;40.084;32.908;2023-05-20T12:08:33;89119.63;;;18.99;57.16
72585;BME280;60618;40.084;32.908;2023-05-20T12:11:00;89115.00;;;18.71;56.22
72585;BME280;60618;40.084;32.908;2023-05-20T12:13:27;89123.78;;;18.43;57.25
72585;BME280;60618;40.084;32.908;2023-05-20T12:15:54;89114.91;;;18.35;56.17
72585;BME280;60618;40.084;32.908;2023-05-20T12:18:21;89118.16;;;18.13;57.74
72585;BME280;60618;40.084;32.908;2023-05-20T12:20:48;89113.38;;;18.19;58.37
72585;BME280;60618;40.084;32.908;2023-05-20T12:23:15;89108.97;;;18.08;59.64
72585;BME280;60618;40.084;32.908;2023-05-20T12:25:43;89107.72;;;18.09;60.45
72585;BME280;60618;40.084;32.908;2023-05-20T12:28:10;89111.66;;;18.08;59.85
72585;BME280;60618;40.084;32.908;2023-05-20T12:30:37;89097.53;;;18.15;58.94
72585;BME280;60618;40.084;32.908;2023-05-20T12:33:04;89100.03;;;17.93;58.28
72585;BME280;60618;40.084;32.908;2023-05-20T12:35:40;89091.00;;;17.69;58.32
72585;BME280;60618;40.084;32.908;2023-05-20T12:38:08;89102.69;;;17.51;60.07
72585;BME280;60618;40.084;32.908;2023-05-20T12:40:35;89096.13;;;17.39;60.60
72585;BME280;60618;40.084;32.908;2023-05-20T12:43:04;89082.94;;;17.14;60.92
72585;BME280;60618;40.084;32.908;2023-05-20T12:45:31;89084.59;;;17.17;61.64
72585;BME280;60618;40.084;32.908;2023-05-20T12:47:58;89066.69;;;17.41;61.28
72585;BME280;60618;40.084;32.908;2023-05-20T12:50:26;89065.44;;;17.42;60.92
72585;BME280;60618;40.084;32.908;2023-05-20T12:52:53;89068.75;;;17.48;61.66
72585;BME280;60618;40.084;32.908;2023-05-20T12:55:20;89069.53;;;17.56;60.25
72585;BME280;60618;40.084;32.908;2023-05-20T12:57:47;89061.19;;;17.67;59.72
72585;BME280;60618;40.084;32.908;2023-05-20T13:00:16;89054.88;;;17.65;60.57
72585;BME280;60618;40.084;32.908;2023-05-20T13:02:43;89066.28;;;17.71;61.14
72585;BME280;60618;40.084;32.908;2023-05-20T13:05:10;89063.63;;;17.78;60.07
72585;BME280;60618;40.084;32.908;2023-05-20T13:07:37;89073.75;;;17.65;59.38
72585;BME280;60618;40.084;32.908;2023-05-20T13:10:05;89064.31;;;17.71;58.23